Latest Weather Observations for Charleville

IDQ60801

Issued at 6:32 pm EST Friday 20 October 2017 (issued every 30 minutes, with the page automatically refreshed every 10 minutes)

About weather observations | Map of weather stations | Latest weather observations for QLD | Other Formats
Station Details ID: 044021 Name: CHARLEVILLE AERO Lat: -26.41 Lon: 146.26 Height: 301.6 m
Data from the previous 72 hours. | See also: Recent months at Charleville
Date/Time
EST
Temp
°C
App
Temp
°C
Dew
Point
°C
Rel
Hum
%
Delta-T
°C
Wind Press
QNH
hPa
Press
MSL
hPa
Rain since
9am
mm
Dir  Spd
km/h
Gust
km/h
Spd
kts
Gust
kts
20/06:30pm 22.7 24.0 18.5 77 2.7 SW 9 11 5 6 1017.6 1016.4 1.6
20/06:00pm 22.9 24.0 18.0 74 3.1 SSW 9 13 5 7 1017.7 1016.5 1.6
20/05:30pm 23.1 23.4 18.0 73 3.2 SSW 13 19 7 10 1017.6 1016.4 1.6
20/05:00pm 23.2 22.7 17.7 71 3.5 SSW 17 22 9 12 1017.5 1016.3 1.6
20/04:30pm 23.2 24.1 18.5 75 3.0 SSW 11 17 6 9 1017.3 1016.1 1.6
20/04:00pm 21.7 22.9 19.1 85 1.7 WSW 11 15 6 8 1017.5 1016.3 1.6
20/03:30pm 21.4 23.2 18.2 82 2.0 E 6 9 3 5 1017.7 1016.5 1.4
20/03:00pm 21.1 22.8 18.5 85 1.6 NNE 7 11 4 6 1017.6 1016.4 1.2
20/02:33pm 20.5 21.4 18.3 87 1.4 ESE 11 15 6 8 1017.9 1016.7 1.2
20/02:30pm 20.6 21.4 18.2 86 1.5 ESE 11 15 6 8 1017.9 1016.7 1.2
20/02:08pm 20.3 20.7 18.1 87 1.4 SSW 13 19 7 10 1019.0 1017.7 1.0
20/02:00pm 20.5 20.0 17.9 85 1.6 SSW 17 24 9 13 1019.0 1017.7 0.8
20/01:30pm 21.5 20.5 17.9 80 2.3 SSW 20 30 11 16 1019.3 1018.0 0.6
20/01:14pm 22.0 21.4 18.4 80 2.3 SSW 19 30 10 16 1019.5 1018.3 0.6
20/01:00pm 22.2 22.0 18.6 80 2.3 SSW 17 30 9 16 1019.6 1018.4 0.6
20/12:37pm 21.8 21.8 19.7 88 1.4 SW 19 26 10 14 1019.8 1018.6 0.6
20/12:30pm 21.3 21.9 19.4 89 1.2 SW 15 26 8 14 1019.9 1018.7 0.6
20/12:28pm 21.3 22.5 19.8 91 1.0 SW 13 26 7 14 1019.9 1018.7 0.6
20/12:02pm 21.2 19.5 18.0 82 2.0 SW 24 37 13 20 1020.1 1018.9 0.2
20/12:00pm 21.7 20.0 18.1 80 2.3 WSW 24 37 13 20 1020.1 1018.9 0.2
20/11:57am 22.6 21.0 17.5 73 3.2 WSW 22 37 12 20 1020.0 1018.8 0.0
20/11:30am 25.6 25.1 15.9 55 6.0 W 13 19 7 10 1019.8 1018.6 0.0
20/11:00am 26.0 26.3 16.0 54 6.2 WNW 9 17 5 9 1020.1 1018.9 0.0
20/10:30am 25.2 24.9 16.4 58 5.5 NNW 13 17 7 9 1020.5 1019.3 0.0
20/10:00am 25.3 24.1 16.2 57 5.6 NNW 17 24 9 13 1020.8 1019.6 0.0
20/09:30am 24.9 23.9 16.6 60 5.2 NNW 17 24 9 13 1020.8 1019.6 0.0
20/09:00am 24.2 22.9 16.7 63 4.7 NNW 19 28 10 15 1020.6 1019.4 0.0
20/08:30am 24.1 22.7 16.9 64 4.5 NNW 20 28 11 15 1020.6 1019.4 0.0
20/08:00am 23.7 22.2 16.7 65 4.3 NNW 20 26 11 14 1020.5 1019.3 0.0
20/07:30am 23.1 23.2 16.6 67 4.0 N 11 15 6 8 1020.4 1019.2 0.0
20/07:00am 21.7 22.1 16.2 71 3.4 N 9 15 5 8 1020.0 1018.8 0.0
20/06:30am 20.9 20.8 16.1 74 2.9 N 11 13 6 7 1019.6 1018.4 0.0
20/06:00am 20.0 19.9 16.0 78 2.4 NNE 11 15 6 8 1019.3 1018.0 0.0
20/05:30am 19.9 19.7 15.7 77 2.5 NNE 11 13 6 7 1019.1 1017.8 0.0
20/05:00am 20.0 20.5 15.6 76 2.6 N 7 9 4 5 1018.9 1017.6 0.0
20/04:30am 20.0 20.4 15.4 75 2.8 NNE 7 9 4 5 1018.7 1017.4 0.0
20/04:00am 20.4 20.9 15.6 74 2.9 NNE 7 9 4 5 1018.6 1017.3 0.0
20/03:30am 20.4 20.8 15.4 73 3.0 NNE 7 9 4 5 1018.5 1017.2 0.0
20/03:00am 20.7 21.2 15.5 72 3.1 NE 7 9 4 5 1018.5 1017.2 0.0
20/02:30am 21.1 21.5 15.4 70 3.4 NNE 7 9 4 5 1018.6 1017.3 0.0
20/02:00am 21.5 22.0 15.6 69 3.6 NNE 7 9 4 5 1018.8 1017.5 0.0
20/01:30am 21.8 21.9 15.4 67 3.9 NNE 9 11 5 6 1018.8 1017.5 0.0
20/01:00am 22.3 22.4 15.4 65 4.2 NNE 9 11 5 6 1019.2 1017.9 0.0
20/12:30am 22.8 22.5 15.4 63 4.5 NE 11 15 6 8 1019.5 1018.3 0.0
20/12:00am 23.1 23.2 15.4 62 4.7 NE 9 13 5 7 1019.8 1018.6 0.0
 
Date/Time
EST
Temp
°C
App
Temp
°C
Dew
Point
°C
Rel
Hum
%
Delta-T
°C
Wind Press
QNH
hPa
Press
MSL
hPa
Rain since
9am
mm
Dir  Spd
km/h
Gust
km/h
Spd
kts
Gust
kts
19/11:30pm 23.3 23.9 15.9 63 4.5 NE 7 11 4 6 1020.1 1018.9 0.0
19/11:00pm 23.5 23.8 17.0 67 4.0 NE 11 15 6 8 1020.2 1019.0 0.0
19/10:30pm 23.5 24.2 17.9 71 3.5 NE 11 13 6 7 1020.2 1019.0 0.0
19/10:00pm 23.9 24.3 18.1 70 3.7 NE 13 19 7 10 1020.3 1019.1 0.0
19/09:30pm 24.3 24.2 17.8 67 4.1 NNE 15 17 8 9 1020.3 1019.1 0.0
19/09:00pm 24.9 24.8 17.9 65 4.4 NE 15 19 8 10 1020.1 1018.9 0.0
19/08:30pm 25.4 25.7 17.1 60 5.2 ENE 11 17 6 9 1019.8 1018.6 0.0
19/08:00pm 25.4 26.1 17.1 60 5.2 NE 9 13 5 7 1019.8 1018.6 0.0
19/07:30pm 25.3 25.4 17.5 62 4.9 NNE 13 17 7 9 1019.8 1018.6 0.0
19/07:00pm 25.4 25.4 17.3 61 5.1 NNE 13 19 7 10 1019.6 1018.4 0.0
19/06:30pm 25.8 24.5 16.9 58 5.6 NNE 19 26 10 14 1019.4 1018.2 0.0
19/06:00pm 26.5 23.5 16.7 55 6.1 N 28 39 15 21 1018.8 1017.5 0.0
19/05:45pm 28.4 25.6 15.3 45 8.1 NNE 24 43 13 23 1018.5 1017.2 0.0
19/05:30pm 29.7 27.8 14.3 39 9.4 NE 17 22 9 12 1017.9 1016.7 0.0
19/05:00pm 30.0 28.5 14.1 37 9.7 NNE 15 20 8 11 1017.6 1016.4 0.0
19/04:30pm 30.3 29.0 13.6 36 10.1 NE 13 19 7 10 1017.6 1016.4 0.0
19/04:00pm 30.2 29.4 13.9 37 9.9 ENE 11 19 6 10 1017.5 1016.3 0.0
19/03:30pm 30.1 29.2 13.8 37 9.9 ENE 11 19 6 10 1017.8 1016.6 0.0
19/03:00pm 29.5 28.7 14.1 39 9.4 ENE 11 19 6 10 1018.3 1017.0 0.0
19/02:30pm 29.4 28.1 13.6 38 9.6 NNE 13 20 7 11 1018.6 1017.3 0.0
19/02:00pm 29.3 28.1 13.9 39 9.3 NE 13 22 7 12 1018.8 1017.5 0.0
19/01:30pm 29.6 27.7 14.2 39 9.4 NE 17 26 9 14 1019.2 1017.9 0.0
19/01:00pm 28.9 27.3 13.9 39 9.1 ENE 15 28 8 15 1019.5 1018.3 0.0
19/12:30pm 28.9 27.6 14.7 42 8.7 NE 15 32 8 17 1019.9 1018.7 0.0
19/12:00pm 27.5 26.2 14.8 45 7.7 ENE 15 26 8 14 1020.2 1019.0 0.0
19/11:30am 26.8 25.2 14.9 48 7.3 NE 17 28 9 15 1020.4 1019.2 0.0
19/11:00am 26.5 24.2 14.6 48 7.2 NE 20 28 11 15 1020.8 1019.6 0.0
19/10:30am 25.9 23.2 14.7 50 6.8 NE 22 33 12 18 1021.0 1019.8 0.0
19/10:00am 25.6 23.6 15.6 54 6.1 NE 20 33 11 18 1021.5 1020.2 0.0
19/09:30am 24.9 22.2 15.5 56 5.8 ENE 24 37 13 20 1021.7 1020.4 0.0
19/09:00am 24.6 22.3 15.8 58 5.4 ENE 22 32 12 17 1021.8 1020.5 0.0
19/08:30am 23.5 21.2 15.8 62 4.7 ENE 22 32 12 17 1021.8 1020.5 0.0
19/08:00am 22.5 21.6 15.8 66 4.1 ENE 15 22 8 12 1021.6 1020.3 0.0
19/07:30am 22.2 21.3 15.8 67 3.9 ENE 15 24 8 13 1021.3 1020.1 0.0
19/07:00am 22.1 19.8 15.7 67 3.9 ENE 22 32 12 17 1020.9 1019.7 0.0
19/06:30am 21.4 20.1 15.9 71 3.3 ENE 17 22 9 12 1020.7 1019.5 0.0
19/06:00am 21.1 19.5 15.9 72 3.1 ENE 19 30 10 16 1020.1 1018.9 0.0
19/05:30am 21.1 20.6 15.9 72 3.2 ENE 13 20 7 11 1019.8 1018.6 0.0
19/05:00am 21.1 20.2 15.9 72 3.1 ENE 15 22 8 12 1019.5 1018.3 0.0
19/04:30am 21.2 19.6 16.0 72 3.2 ENE 19 26 10 14 1019.5 1018.3 0.0
19/04:00am 21.2 20.4 16.0 72 3.2 ENE 15 22 8 12 1019.4 1018.2 0.0
19/03:30am 21.2 19.6 16.0 72 3.2 NE 19 28 10 15 1019.4 1018.2 0.0
19/03:00am 21.3 20.1 16.0 72 3.2 ENE 17 22 9 12 1019.3 1018.0 0.0
19/02:30am 21.4 19.8 16.1 72 3.2 ENE 19 30 10 16 1019.5 1018.3 0.0
19/02:00am 21.6 19.8 16.1 71 3.3 ENE 20 30 11 16 1019.6 1018.4 0.0
19/01:30am 21.7 20.2 16.2 71 3.4 ENE 19 26 10 14 1019.8 1018.6 0.0
19/01:00am 22.0 19.6 16.5 71 3.4 ENE 24 39 13 21 1020.1 1018.9 0.0
19/12:30am 22.3 20.7 16.6 70 3.5 ENE 20 32 11 17 1020.3 1019.1 0.0
19/12:00am 22.4 20.1 16.7 70 3.5 ENE 24 33 13 18 1020.4 1019.2 0.0
 
Date/Time
EST
Temp
°C
App
Temp
°C
Dew
Point
°C
Rel
Hum
%
Delta-T
°C
Wind Press
QNH
hPa
Press
MSL
hPa
Rain since
9am
mm
Dir  Spd
km/h
Gust
km/h
Spd
kts
Gust
kts
18/11:30pm 22.4 20.6 16.9 71 3.4 ENE 22 37 12 20 1020.2 1019.0 0.0
18/11:00pm 22.6 20.5 17.1 71 3.4 ENE 24 35 13 19 1020.3 1019.1 0.0
18/10:30pm 22.7 21.9 17.2 71 3.4 ENE 17 28 9 15 1020.4 1019.2 0.0
18/10:00pm 22.3 21.2 17.7 75 2.9 ENE 20 32 11 17 1020.3 1019.1 0.0
18/09:30pm 22.8 21.8 17.5 72 3.3 ENE 19 32 10 17 1020.1 1018.9 0.0
18/09:00pm 22.9 21.0 17.6 72 3.3 ENE 24 37 13 20 1019.7 1018.5 0.0
18/08:30pm 23.1 20.7 17.3 70 3.6 ENE 26 43 14 23 1019.3 1018.0 0.0
18/08:00pm 23.1 20.8 17.6 71 3.5 E 26 41 14 22 1018.9 1017.6 0.0
18/07:40pm 23.1 20.5 17.8 72 3.3 E 28 48 15 26 1018.6 1017.3 0.0
18/07:30pm 23.1 20.9 17.8 72 3.3 E 26 41 14 22 1018.5 1017.2 0.0
18/07:00pm 23.3 20.2 17.5 70 3.6 E 30 39 16 21 1018.1 1016.8 0.0
18/06:35pm 23.8 21.1 17.5 68 4.0 E 28 46 15 25 1017.3 1016.1 0.0
18/06:30pm 23.9 20.4 17.9 69 3.8 E 33 46 18 25 1017.2 1016.0 0.0
18/06:09pm 24.2 20.8 18.2 69 3.8 E 33 52 18 28 1016.7 1015.5 0.0
18/06:00pm 24.3 20.5 18.0 68 4.0 E 35 50 19 27 1016.6 1015.4 0.0
18/05:39pm 24.7 21.4 17.9 66 4.3 E 32 50 17 27 1016.3 1015.0 0.0
18/05:30pm 24.6 21.1 17.8 66 4.3 E 33 48 18 26 1016.3 1015.0 0.0
18/05:00pm 25.3 20.7 17.2 61 5.1 ESE 37 56 20 30 1016.0 1014.7 0.0
18/04:52pm 26.3 22.8 17.4 58 5.6 ESE 32 54 17 29 1015.7 1014.4 0.0
18/04:30pm 26.6 22.8 17.1 56 6.0 E 33 48 18 26 1015.6 1014.3 0.0
18/04:00pm 27.6 24.0 17.2 53 6.6 ESE 32 43 17 23 1015.5 1014.2 0.0
18/03:30pm 26.9 22.8 16.5 53 6.5 E 33 50 18 27 1015.5 1014.2 0.0
18/03:24pm 27.6 23.9 16.9 52 6.8 ESE 32 50 17 27 1015.4 1014.1 0.0
18/03:00pm 27.8 23.3 16.4 50 7.1 E 35 48 19 26 1015.4 1014.1 0.0
18/02:30pm 27.8 24.3 16.4 50 7.2 E 30 44 16 24 1015.5 1014.2 0.0
18/02:00pm 28.0 23.7 16.0 48 7.5 E 33 48 18 26 1015.9 1014.6 0.0
18/01:30pm 28.4 25.8 16.0 47 7.7 E 24 39 13 21 1016.2 1014.9 0.0
18/01:00pm 28.7 25.6 15.6 45 8.1 E 26 39 14 21 1016.6 1015.4 0.0
18/12:30pm 28.0 24.1 15.6 46 7.7 E 30 41 16 22 1017.0 1015.8 0.0
18/12:00pm 27.2 24.0 16.2 51 6.9 ESE 28 37 15 20 1017.4 1016.2 0.0
18/11:30am 26.0 23.3 16.5 55 5.9 ESE 26 37 14 20 1017.8 1016.6 0.0
18/11:00am 25.8 23.2 15.8 54 6.2 ENE 24 33 13 18 1018.1 1016.8 0.0
18/10:30am 25.5 23.0 16.1 56 5.8 ENE 24 37 13 20 1018.4 1017.1 0.0
18/10:00am 25.3 22.8 16.2 57 5.6 E 24 37 13 20 1018.6 1017.3 0.0
18/09:30am 24.3 21.0 16.0 60 5.1 E 28 39 15 21 1018.8 1017.5 0.0
18/09:00am 23.5 19.5 16.1 63 4.5 ENE 32 44 17 24 1018.8 1017.5 0.6
18/08:30am 22.9 19.7 16.2 66 4.1 E 28 46 15 25 1018.8 1017.5 0.6
18/08:00am 22.0 19.6 16.3 70 3.5 E 24 35 13 19 1018.8 1017.5 0.6
18/07:30am 21.2 18.3 16.2 73 3.1 E 26 33 14 18 1018.5 1017.2 0.6
18/07:00am 20.8 18.3 16.2 75 2.8 E 24 32 13 17 1017.9 1016.7 0.6
18/06:30am 20.3 18.7 16.1 77 2.5 E 19 30 10 16 1017.8 1016.6 0.6
18/06:00am 19.9 18.7 16.2 79 2.2 E 17 26 9 14 1017.5 1016.3 0.6
18/05:41am 19.8 18.6 16.1 79 2.2 E 17 20 9 11 1017.5 1016.3 0.6
18/05:30am 19.8 18.6 16.1 79 2.2 ESE 17 30 9 16 1017.4 1016.2 0.6
18/05:00am 19.8 19.0 16.1 79 2.2 E 15 26 8 14 1016.9 1015.7 0.6
18/04:30am 19.7 18.2 16.2 80 2.1 E 19 26 10 14 1016.4 1015.1 0.6
18/04:00am 19.6 17.9 16.3 81 2.0 E 20 32 11 17 1016.2 1014.9 0.6
18/03:30am 19.5 18.0 16.2 81 2.0 E 19 28 10 15 1016.1 1014.8 0.6
18/03:00am 19.5 18.0 16.3 82 1.9 ESE 19 26 10 14 1016.1 1014.8 0.6
18/02:55am 19.5 18.0 16.3 82 1.9 ESE 19 28 10 15 1016.1 1014.8 0.6
18/02:30am 19.4 17.9 16.2 82 1.9 E 19 26 10 14 1016.3 1015.0 0.6
18/02:00am 19.3 18.2 16.3 83 1.8 ESE 17 20 9 11 1016.5 1015.3 0.6
18/01:30am 19.1 18.4 16.3 84 1.7 ESE 15 19 8 10 1016.7 1015.5 0.6
18/01:00am 19.1 18.4 16.3 84 1.7 E 15 20 8 11 1017.0 1015.8 0.6
18/12:30am 19.2 17.7 16.4 84 1.7 ESE 19 26 10 14 1017.3 1016.1 0.6
18/12:00am 18.9 17.2 16.3 85 1.6 ESE 20 30 11 16 1017.6 1016.4 0.6
 
Date/Time
EST
Temp
°C
App
Temp
°C
Dew
Point
°C
Rel
Hum
%
Delta-T
°C
Wind Press
QNH
hPa
Press
MSL
hPa
Rain since
9am
mm
Dir  Spd
km/h
Gust
km/h
Spd
kts
Gust
kts
17/11:58pm 18.9 17.4 16.3 85 1.6 ESE 19 26 10 14 1017.6 1016.4 0.6
17/11:30pm 18.5 17.0 16.3 87 1.3 SE 19 26 10 14 1017.7 1016.5 0.6
17/11:10pm 18.5 16.9 16.1 86 1.4 ESE 19 26 10 14 1017.7 1016.5 0.6
17/11:00pm 18.6 16.7 15.8 84 1.7 ESE 20 28 11 15 1017.9 1016.7 0.6
17/10:30pm 19.1 17.1 15.4 79 2.2 SE 20 28 11 15 1018.2 1016.9 0.6
17/10:00pm 19.2 17.8 15.5 79 2.2 SE 17 28 9 15 1018.3 1017.0 0.6
17/09:30pm 19.2 17.3 15.3 78 2.3 SE 19 26 10 14 1018.5 1017.2 0.6
17/09:22pm 19.2 17.7 15.3 78 2.3 ESE 17 26 9 14 1018.5 1017.2 0.6
17/09:00pm 19.4 17.0 15.3 77 2.4 ESE 22 32 12 17 1018.3 1017.0 0.6
17/08:30pm 19.6 17.0 15.0 75 2.7 SE 22 37 12 20 1018.2 1016.9 0.6
17/08:00pm 19.9 16.2 15.1 74 2.9 ESE 28 37 15 20 1017.8 1016.6 0.6
17/07:30pm 20.2 16.9 15.0 72 3.1 ESE 26 35 14 19 1017.4 1016.2 0.6
17/07:00pm 20.3 17.4 15.1 72 3.1 ESE 24 33 13 18 1017.1 1015.9 0.6

Other Formats:

Comma delimited format used in spreadsheet applications
http://www.bom.gov.au/fwo/IDQ60801/IDQ60801.94510.axf

JavaScript Object Notation format (JSON) in row-major order
http://www.bom.gov.au/fwo/IDQ60801/IDQ60801.94510.json